Time;durP1;ratioP1;P1;durP2;ratioP2;P2;SDS_P1;SDS_P2;PMS_P1;PMS_P2;Temp;Humidity;BMP_temperature;BMP_pressure;BME280_temperature;BME280_humidity;BME280_pressure;Samples;Min_cycle;Max_cycle;Signal;HPM_P1;HPM_P2
2023/05/12 00:01:36;;;;;;;6.83;5.53;;;18.10;71.80;;;;;;5092911;28;20549;-75
2023/05/12 00:04:05;;;;;;;6.53;4.90;;;18.10;72.10;;;;;;5092570;28;20483;-75
2023/05/12 00:06:32;;;;;;;5.27;4.77;;;18.10;72.10;;;;;;5093069;28;20543;-75
2023/05/12 00:08:59;;;;;;;6.27;5.17;;;18.10;72.00;;;;;;5092349;28;20469;-75
2023/05/12 00:11:26;;;;;;;7.03;4.50;;;18.10;72.00;;;;;;5092915;28;20461;-75
2023/05/12 00:13:54;;;;;;;5.40;5.00;;;18.10;72.00;;;;;;5093079;28;20495;-75
2023/05/12 00:16:22;;;;;;;5.97;5.37;;;18.00;71.50;;;;;;5092772;28;20497;-75
2023/05/12 00:18:50;;;;;;;8.60;6.30;;;18.00;71.30;;;;;;5092763;28;20499;-76
2023/05/12 00:21:19;;;;;;;6.03;4.83;;;18.00;71.70;;;;;;5092838;28;20980;-76
2023/05/12 00:23:46;;;;;;;6.40;5.43;;;17.90;72.30;;;;;;5093258;28;20485;-76
2023/05/12 00:26:16;;;;;;;6.20;5.60;;;17.90;71.60;;;;;;5093487;28;20469;-76
2023/05/12 00:28:43;;;;;;;5.77;5.20;;;17.90;71.50;;;;;;5097070;28;20457;-76
2023/05/12 00:31:10;;;;;;;5.87;5.37;;;17.90;71.80;;;;;;5095581;28;20470;-76
2023/05/12 00:33:37;;;;;;;6.33;4.97;;;17.90;71.90;;;;;;5097180;28;20495;-76
2023/05/12 00:36:04;;;;;;;6.27;5.67;;;17.90;71.80;;;;;;5096307;28;20469;-76
2023/05/12 00:38:33;;;;;;;5.90;5.33;;;17.80;71.70;;;;;;5096888;28;20477;-76
2023/05/12 00:41:01;;;;;;;5.07;4.67;;;17.80;71.80;;;;;;5096061;28;20973;-75
2023/05/12 00:43:28;;;;;;;5.53;5.10;;;17.80;71.80;;;;;;5096928;28;20465;-75
2023/05/12 00:45:55;;;;;;;6.10;5.40;;;17.70;71.70;;;;;;5096490;28;20473;-75
2023/05/12 00:48:22;;;;;;;7.93;4.40;;;17.70;71.80;;;;;;5096271;28;20458;-75
2023/05/12 00:50:49;;;;;;;5.40;4.73;;;17.60;71.80;;;;;;5096801;28;20547;-74
2023/05/12 00:53:16;;;;;;;4.97;4.57;;;17.60;71.80;;;;;;5096220;28;20534;-74
2023/05/12 00:55:48;;;;;;;5.37;4.63;;;17.60;72.00;;;;;;5096142;28;20477;-75
2023/05/12 00:58:15;;;;;;;6.10;4.70;;;17.50;72.20;;;;;;5086430;28;20473;-76
2023/05/12 01:00:42;;;;;;;4.97;4.57;;;17.50;72.30;;;;;;5096578;28;20488;-74
2023/05/12 01:03:10;;;;;;;5.77;4.60;;;17.50;72.40;;;;;;5095334;28;20469;-75
2023/05/12 01:05:47;;;;;;;4.80;4.30;;;17.40;72.30;;;;;;5096413;28;20461;-76
2023/05/12 01:08:16;;;;;;;8.00;4.90;;;17.40;72.50;;;;;;5095809;28;20468;-75
2023/05/12 01:10:44;;;;;;;5.90;4.43;;;17.30;72.60;;;;;;5095712;28;20495;-75
2023/05/12 01:13:13;;;;;;;6.50;5.97;;;17.30;72.80;;;;;;5095604;28;20477;-76
2023/05/12 01:15:44;;;;;;;5.73;4.30;;;17.20;72.80;;;;;;5096231;28;20493;-75
2023/05/12 01:18:12;;;;;;;5.43;4.93;;;17.20;72.90;;;;;;5095807;28;20473;-75
2023/05/12 01:20:42;;;;;;;4.60;4.20;;;17.20;72.90;;;;;;5096243;28;20485;-75
2023/05/12 01:23:09;;;;;;;4.83;4.43;;;17.30;73.10;;;;;;5095334;28;20775;-75
2023/05/12 01:25:39;;;;;;;7.03;4.67;;;17.30;73.00;;;;;;5097292;28;21094;-76
2023/05/12 01:28:08;;;;;;;5.07;4.57;;;17.20;73.00;;;;;;5098306;28;20496;-75
2023/05/12 01:30:37;;;;;;;7.60;5.13;;;17.20;72.90;;;;;;5095727;28;20963;-75
2023/05/12 01:33:04;;;;;;;6.63;4.90;;;17.20;72.80;;;;;;5095786;28;20465;-75
2023/05/12 01:35:31;;;;;;;6.97;4.37;;;17.20;72.90;;;;;;5094964;28;20872;-76
2023/05/12 01:38:02;;;;;;;7.00;5.30;;;17.20;73.00;;;;;;5095974;28;20556;-76
2023/05/12 01:40:29;;;;;;;6.50;4.93;;;17.20;73.00;;;;;;5094530;28;20454;-76
2023/05/12 01:42:56;;;;;;;5.73;4.33;;;17.20;73.10;;;;;;5095406;28;20473;-76
2023/05/12 01:45:24;;;;;;;7.93;5.47;;;17.20;73.30;;;;;;5094937;28;20466;-75
2023/05/12 01:47:51;;;;;;;7.00;5.50;;;17.10;73.20;;;;;;5089873;27;20508;-76
2023/05/12 01:50:18;;;;;;;5.13;4.60;;;17.10;73.00;;;;;;5105844;28;20469;-76
2023/05/12 01:52:45;;;;;;;6.97;6.33;;;17.10;73.10;;;;;;5095283;28;20469;-76
2023/05/12 01:55:12;;;;;;;14.43;8.13;;;17.00;73.20;;;;;;5095297;28;20470;-75
2023/05/12 01:57:39;;;;;;;9.73;6.70;;;17.00;73.40;;;;;;5094830;28;20538;-74
2023/05/12 02:00:11;;;;;;;8.37;7.47;;;17.00;73.50;;;;;;5095488;28;20883;-76
2023/05/12 02:02:40;;;;;;;9.00;8.10;;;17.00;73.60;;;;;;5095027;28;20479;-75
2023/05/12 02:05:08;;;;;;;11.63;8.70;;;17.00;73.70;;;;;;5099745;28;20564;-75
2023/05/12 02:07:35;;;;;;;8.63;7.80;;;17.00;73.70;;;;;;5095687;28;20476;-75
2023/05/12 02:10:02;;;;;;;7.50;6.80;;;17.00;73.90;;;;;;5095292;28;20461;-76
2023/05/12 02:12:29;;;;;;;11.13;6.03;;;17.00;74.00;;;;;;5094727;28;20476;-75
2023/05/12 02:14:56;;;;;;;8.40;7.10;;;16.90;74.00;;;;;;5095100;28;20477;-76
2023/05/12 02:17:30;;;;;;;6.07;5.57;;;16.90;74.20;;;;;;5094635;28;20962;-76
2023/05/12 02:19:58;;;;;;;10.03;5.90;;;16.90;74.20;;;;;;5095362;28;20955;-76
2023/05/12 02:22:25;;;;;;;8.20;6.53;;;16.80;74.30;;;;;;5094471;28;20500;-75
2023/05/12 02:24:52;;;;;;;6.33;5.03;;;16.80;74.50;;;;;;5094624;28;20470;-76
2023/05/12 02:27:19;;;;;;;9.73;5.87;;;16.80;74.70;;;;;;5094972;28;20832;-76
2023/05/12 02:29:46;;;;;;;9.17;5.43;;;16.70;74.90;;;;;;5094388;28;20492;-76
2023/05/12 02:32:13;;;;;;;6.70;6.10;;;16.80;75.00;;;;;;5094488;28;20943;-75
2023/05/12 02:34:40;;;;;;;6.57;5.60;;;16.70;75.00;;;;;;5094184;28;20493;-76
2023/05/12 02:37:09;;;;;;;6.70;6.00;;;16.70;75.00;;;;;;5094080;28;20470;-75
2023/05/12 02:39:35;;;;;;;6.13;5.27;;;16.60;75.10;;;;;;5094161;28;20848;-75
2023/05/12 02:42:03;;;;;;;8.03;4.90;;;16.60;75.30;;;;;;5094862;28;20523;-76
2023/05/12 02:44:30;;;;;;;6.73;6.10;;;16.60;75.40;;;;;;5094351;28;20874;-75
2023/05/12 02:46:57;;;;;;;8.60;5.80;;;16.60;75.60;;;;;;5094676;28;20943;-75
2023/05/12 02:49:24;;;;;;;6.00;5.03;;;16.50;75.60;;;;;;5094684;28;20466;-75
2023/05/12 02:51:51;;;;;;;6.13;5.50;;;16.50;75.60;;;;;;5094978;28;20466;-75
2023/05/12 02:54:19;;;;;;;6.40;4.77;;;16.50;75.70;;;;;;5094792;28;20537;-75
2023/05/12 02:56:46;;;;;;;7.43;6.40;;;16.40;75.80;;;;;;5094451;28;20530;-76
2023/05/12 02:59:13;;;;;;;5.57;4.90;;;16.40;76.10;;;;;;5094542;28;20923;-76
2023/05/12 03:01:40;;;;;;;9.87;5.37;;;16.30;76.00;;;;;;5094080;28;20527;-75
2023/05/12 03:04:07;;;;;;;8.03;5.87;;;16.30;76.30;;;;;;5095310;28;20470;-76
2023/05/12 03:06:34;;;;;;;5.87;5.00;;;16.30;76.50;;;;;;5094694;28;20527;-76
2023/05/12 03:09:01;;;;;;;5.47;4.97;;;16.20;76.50;;;;;;5096404;28;20469;-77
2023/05/12 03:11:29;;;;;;;6.93;5.40;;;16.20;76.90;;;;;;5095879;28;20465;-77
2023/05/12 03:13:56;;;;;;;7.30;5.10;;;16.20;76.80;;;;;;5097797;28;20481;-76
2023/05/12 03:16:26;;;;;;;6.50;6.00;;;16.10;76.90;;;;;;5098468;28;20465;-76
2023/05/12 03:18:53;;;;;;;7.77;5.90;;;16.10;77.10;;;;;;5098051;28;20472;-76
2023/05/12 03:21:20;;;;;;;6.00;5.20;;;16.00;77.20;;;;;;5100428;28;20495;-76
2023/05/12 03:23:47;;;;;;;6.90;5.07;;;16.00;77.40;;;;;;5099549;28;20477;-76
2023/05/12 03:26:14;;;;;;;7.23;6.47;;;16.00;77.80;;;;;;5102633;28;20472;-76
2023/05/12 03:28:42;;;;;;;6.37;5.73;;;16.00;77.80;;;;;;5099669;28;20469;-76
2023/05/12 03:31:09;;;;;;;5.93;4.90;;;15.90;77.60;;;;;;5097207;28;20469;-76
2023/05/12 03:33:36;;;;;;;6.47;5.43;;;15.90;77.60;;;;;;5096358;28;20457;-77
2023/05/12 03:36:03;;;;;;;6.37;5.07;;;15.90;77.90;;;;;;5096859;28;20535;-76
2023/05/12 03:38:31;;;;;;;5.80;5.30;;;15.90;77.90;;;;;;5096821;28;20826;-76
2023/05/12 03:41:04;;;;;;;7.10;5.60;;;15.90;78.00;;;;;;5095297;28;20469;-76
2023/05/12 03:43:31;;;;;;;5.43;4.93;;;15.80;78.00;;;;;;5095453;28;20538;-75
2023/05/12 03:46:00;;;;;;;5.67;5.17;;;15.80;78.30;;;;;;5095300;28;20485;-76
2023/05/12 03:48:27;;;;;;;5.17;4.77;;;15.80;78.30;;;;;;5095963;28;20560;-76
2023/05/12 03:50:54;;;;;;;5.30;4.80;;;15.80;78.40;;;;;;5095646;28;20454;-75
2023/05/12 03:53:21;;;;;;;7.30;6.00;;;15.70;78.20;;;;;;5094956;28;20519;-75
2023/05/12 03:55:48;;;;;;;5.90;4.93;;;15.70;78.40;;;;;;5095210;28;20502;-75
2023/05/12 03:58:15;;;;;;;5.83;5.33;;;15.70;78.40;;;;;;5096553;28;20958;-75
2023/05/12 04:00:45;;;;;;;9.50;5.47;;;15.70;78.70;;;;;;5094179;28;20556;-76
2023/05/12 04:03:39;;;;;;;5.43;4.77;;;15.70;78.70;;;;;;5093951;28;20492;-75
2023/05/12 04:06:07;;;;;;;7.80;5.33;;;15.70;78.70;;;;;;5093308;28;20453;-75
2023/05/12 04:08:34;;;;;;;7.47;5.90;;;15.70;78.90;;;;;;5093561;28;20974;-76
2023/05/12 04:11:02;;;;;;;7.27;5.30;;;15.60;78.90;;;;;;5092958;28;20458;-75
2023/05/12 04:13:30;;;;;;;6.27;5.63;;;15.60;79.20;;;;;;5092912;28;20854;-75
2023/05/12 04:15:58;;;;;;;8.00;5.73;;;15.60;79.40;;;;;;5092469;28;20468;-75
2023/05/12 04:18:26;;;;;;;5.20;4.80;;;15.60;79.50;;;;;;5093130;28;20472;-75
2023/05/12 04:20:54;;;;;;;7.10;5.40;;;15.60;79.70;;;;;;5092701;28;20469;-76
2023/05/12 04:23:21;;;;;;;6.83;6.03;;;15.60;79.70;;;;;;5092607;28;20505;-75
2023/05/12 04:25:48;;;;;;;5.67;5.20;;;15.60;79.70;;;;;;5092492;28;20469;-75
2023/05/12 04:28:16;;;;;;;10.30;6.30;;;15.60;79.60;;;;;;5092692;28;20465;-75
2023/05/12 04:30:43;;;;;;;6.27;5.67;;;15.60;79.70;;;;;;5092818;28;20544;-75
2023/05/12 04:33:10;;;;;;;5.50;5.10;;;15.60;79.80;;;;;;5091803;28;20841;-76
2023/05/12 04:35:37;;;;;;;6.73;6.07;;;15.60;80.00;;;;;;5091668;28;20477;-75
2023/05/12 04:38:36;;;;;;;7.43;5.63;;;15.60;79.90;;;;;;5092395;28;20854;-75
2023/05/12 04:41:03;;;;;;;6.80;5.80;;;15.60;79.80;;;;;;5092051;28;20519;-76
2023/05/12 04:43:30;;;;;;;8.00;5.30;;;15.60;80.10;;;;;;5092731;28;20465;-76
2023/05/12 04:45:57;;;;;;;6.10;5.60;;;15.60;80.20;;;;;;5092339;28;20470;-76
2023/05/12 04:48:24;;;;;;;7.03;6.30;;;15.60;80.20;;;;;;5093066;28;20473;-77
2023/05/12 04:50:51;;;;;;;9.13;6.17;;;15.60;80.20;;;;;;5092324;28;20586;-76
2023/05/12 04:53:18;;;;;;;8.37;7.00;;;15.60;80.20;;;;;;5092854;28;20457;-75
2023/05/12 04:55:46;;;;;;;7.40;5.60;;;15.70;80.50;;;;;;5092277;28;20461;-76
2023/05/12 04:58:13;;;;;;;5.90;5.40;;;15.70;80.20;;;;;;5092068;28;20510;-76
2023/05/12 05:00:40;;;;;;;6.20;5.60;;;15.70;80.20;;;;;;5092463;28;20493;-76
2023/05/12 05:03:07;;;;;;;7.57;6.47;;;15.70;80.10;;;;;;5091523;28;20970;-76
2023/05/12 05:05:34;;;;;;;6.23;5.30;;;15.70;80.10;;;;;;5092261;28;20496;-77
2023/05/12 05:08:01;;;;;;;6.77;5.57;;;15.70;80.10;;;;;;5091045;28;20863;-76
2023/05/12 05:10:28;;;;;;;5.90;5.37;;;15.80;80.40;;;;;;5089687;28;20519;-76
2023/05/12 05:12:56;;;;;;;6.97;6.03;;;15.80;80.40;;;;;;5094026;28;20489;-76
2023/05/12 05:15:23;;;;;;;13.23;6.47;;;15.80;80.30;;;;;;5095847;28;20545;-77
2023/05/12 05:17:50;;;;;;;7.53;6.83;;;15.80;80.30;;;;;;5096335;28;20485;-76
2023/05/12 05:20:17;;;;;;;5.73;5.20;;;15.90;80.30;;;;;;5096172;28;20502;-76
2023/05/12 05:22:47;;;;;;;8.90;6.20;;;15.90;80.30;;;;;;5095663;28;20469;-76
2023/05/12 05:25:14;;;;;;;9.87;6.27;;;16.00;80.40;;;;;;5094922;28;20464;-76
2023/05/12 05:27:41;;;;;;;7.17;5.60;;;16.10;80.20;;;;;;5095826;28;20469;-76
2023/05/12 05:30:10;;;;;;;9.40;5.83;;;16.10;80.20;;;;;;5095255;28;20489;-76
2023/05/12 05:32:39;;;;;;;6.23;5.70;;;16.10;80.00;;;;;;5095512;28;20519;-76
2023/05/12 05:35:06;;;;;;;9.20;6.50;;;16.20;80.10;;;;;;5095077;28;20469;-76
2023/05/12 05:37:33;;;;;;;7.40;5.10;;;16.30;80.20;;;;;;5095660;28;20476;-76
2023/05/12 05:40:00;;;;;;;8.80;4.83;;;16.40;80.20;;;;;;5094784;28;20560;-76
2023/05/12 05:42:27;;;;;;;7.30;5.93;;;16.50;80.10;;;;;;5095475;28;20461;-76
2023/05/12 05:44:55;;;;;;;12.80;7.13;;;16.70;80.20;;;;;;5094975;28;20534;-76
2023/05/12 05:47:23;;;;;;;10.40;6.40;;;16.70;79.30;;;;;;5095416;28;20462;-76
2023/05/12 05:49:50;;;;;;;6.23;5.50;;;16.80;79.40;;;;;;5095585;28;20469;-76
2023/05/12 05:52:17;;;;;;;8.17;5.37;;;16.80;79.30;;;;;;5094829;28;20457;-76
2023/05/12 05:54:43;;;;;;;6.30;5.70;;;16.90;79.50;;;;;;5095220;28;20542;-76
2023/05/12 05:57:10;;;;;;;7.87;5.93;;;17.00;79.50;;;;;;5094562;28;20462;-76
2023/05/12 05:59:37;;;;;;;6.60;5.67;;;17.00;79.30;;;;;;5095077;28;20469;-75
2023/05/12 06:02:05;;;;;;;8.03;6.40;;;17.10;79.30;;;;;;5094782;28;20473;-75
2023/05/12 06:04:33;;;;;;;7.47;5.10;;;17.20;79.30;;;;;;5094804;28;20554;-75
2023/05/12 06:07:00;;;;;;;8.23;6.20;;;17.30;79.30;;;;;;5094065;28;20560;-75
2023/05/12 06:09:27;;;;;;;9.20;5.50;;;17.30;78.60;;;;;;5094673;28;20464;-76
2023/05/12 06:11:54;;;;;;;9.20;6.53;;;17.40;78.00;;;;;;5094661;28;20481;-75
2023/05/12 06:14:21;;;;;;;5.33;4.80;;;17.50;77.70;;;;;;5094508;28;20471;-75
2023/05/12 06:16:48;;;;;;;5.97;5.50;;;17.60;77.60;;;;;;5095011;28;20509;-75
2023/05/12 06:19:15;;;;;;;9.43;5.57;;;17.60;77.30;;;;;;5083713;28;20477;-76
2023/05/12 06:21:43;;;;;;;10.87;6.40;;;17.70;77.00;;;;;;5095395;28;20516;-76
2023/05/12 06:24:10;;;;;;;5.63;4.90;;;17.80;76.40;;;;;;5094084;28;20458;-77
2023/05/12 06:26:37;;;;;;;6.87;5.63;;;17.90;76.60;;;;;;5094602;28;21023;-76
2023/05/12 06:29:07;;;;;;;8.17;5.30;;;18.00;75.90;;;;;;5094257;28;20512;-76
2023/05/12 06:31:34;;;;;;;7.00;5.40;;;18.00;75.70;;;;;;5094562;28;20499;-77
2023/05/12 06:34:02;;;;;;;6.20;5.60;;;18.10;75.50;;;;;;5093745;28;21045;-76
2023/05/12 06:36:38;;;;;;;7.90;5.50;;;18.20;74.80;;;;;;5093864;28;20962;-76
2023/05/12 06:39:07;;;;;;;6.27;5.30;;;18.30;74.80;;;;;;5094644;28;20491;-76
2023/05/12 06:41:33;;;;;;;6.53;5.83;;;18.40;74.10;;;;;;5093711;28;20479;-75
2023/05/12 06:44:01;;;;;;;7.73;5.50;;;18.50;73.20;;;;;;5093996;28;20497;-75
2023/05/12 06:46:28;;;;;;;9.17;5.97;;;18.60;73.00;;;;;;5094361;28;20473;-75
2023/05/12 06:48:55;;;;;;;5.47;4.90;;;18.70;73.00;;;;;;5094034;28;20465;-75
2023/05/12 06:51:22;;;;;;;8.90;5.83;;;18.90;73.40;;;;;;5094821;28;20458;-76
2023/05/12 06:53:49;;;;;;;5.97;5.37;;;19.10;73.40;;;;;;5094227;28;20465;-76
2023/05/12 06:56:18;;;;;;;6.57;5.93;;;19.20;73.70;;;;;;5094549;28;20843;-74
2023/05/12 06:58:45;;;;;;;8.67;6.13;;;19.40;73.40;;;;;;5094046;28;20523;-78
2023/05/12 07:01:12;;;;;;;8.07;4.93;;;19.40;70.70;;;;;;5094912;28;20542;-76
2023/05/12 07:03:39;;;;;;;10.77;5.20;;;19.50;71.40;;;;;;5094466;28;20493;-76
2023/05/12 07:06:06;;;;;;;7.63;5.67;;;19.60;71.30;;;;;;5093759;28;20907;-76
2023/05/12 07:08:33;;;;;;;6.23;5.63;;;19.70;71.10;;;;;;5093657;28;20503;-76
2023/05/12 07:11:00;;;;;;;6.27;5.67;;;19.70;70.90;;;;;;5093354;28;20469;-76
2023/05/12 07:13:28;;;;;;;9.60;5.27;;;19.80;70.60;;;;;;5094304;28;20461;-77
2023/05/12 07:15:55;;;;;;;7.87;5.17;;;19.90;70.40;;;;;;5093821;28;20586;-76
2023/05/12 07:18:22;;;;;;;6.70;4.90;;;20.00;69.90;;;;;;5093412;28;20492;-76
2023/05/12 07:20:49;;;;;;;5.97;5.33;;;20.10;69.30;;;;;;5094166;28;20568;-76
2023/05/12 07:23:22;;;;;;;6.40;5.67;;;20.30;69.50;;;;;;5093925;28;20465;-76
2023/05/12 07:25:49;;;;;;;6.17;4.40;;;20.50;70.00;;;;;;5093459;28;20465;-74
2023/05/12 07:28:16;;;;;;;6.53;5.70;;;20.60;70.20;;;;;;5093905;28;20817;-75
2023/05/12 07:30:45;;;;;;;7.43;4.67;;;20.60;69.70;;;;;;5093951;28;20465;-76
2023/05/12 07:33:11;;;;;;;6.97;5.50;;;20.80;69.90;;;;;;5093640;28;20497;-77
2023/05/12 07:35:38;;;;;;;5.97;5.37;;;20.90;69.20;;;;;;5093425;28;20491;-76
2023/05/12 07:38:08;;;;;;;8.70;6.27;;;21.00;69.20;;;;;;5089508;28;20462;-76
2023/05/12 07:40:35;;;;;;;6.30;5.67;;;21.10;69.40;;;;;;5093257;28;20554;-75
2023/05/12 07:43:02;;;;;;;5.47;4.93;;;21.20;70.40;;;;;;5092205;28;20522;-76
2023/05/12 07:45:29;;;;;;;5.90;5.03;;;21.30;69.40;;;;;;5093409;28;20469;-76
2023/05/12 07:47:57;;;;;;;4.60;4.30;;;21.30;69.20;;;;;;5092413;28;20466;-76
2023/05/12 07:50:24;;;;;;;5.33;4.77;;;21.50;69.10;;;;;;5094015;28;20473;-75
2023/05/12 07:52:53;;;;;;;6.63;5.53;;;21.50;67.30;;;;;;5093371;28;20466;-76
2023/05/12 07:55:22;;;;;;;11.70;4.90;;;21.50;67.00;;;;;;5094731;27;20853;-75
2023/05/12 07:57:50;;;;;;;6.60;5.87;;;21.50;66.50;;;;;;5097324;28;20470;-76
2023/05/12 08:00:17;;;;;;;8.90;5.33;;;21.70;65.60;;;;;;5092234;28;20469;-75
2023/05/12 08:02:45;;;;;;;6.83;5.50;;;21.70;64.30;;;;;;5093443;28;20465;-76
2023/05/12 08:05:14;;;;;;;10.90;5.67;;;21.80;63.00;;;;;;5092394;28;20478;-75
2023/05/12 08:07:42;;;;;;;4.70;4.20;;;21.80;62.60;;;;;;5093059;28;20461;-76
2023/05/12 08:10:10;;;;;;;4.23;3.87;;;22.00;63.00;;;;;;5092559;28;20464;-75
2023/05/12 08:12:37;;;;;;;8.57;4.23;;;22.10;62.00;;;;;;5093102;28;20535;-76
2023/05/12 08:15:06;;;;;;;5.10;4.50;;;22.20;61.60;;;;;;5092530;28;20785;-75
2023/05/12 08:17:33;;;;;;;5.13;4.63;;;22.20;61.00;;;;;;5092978;28;20465;-76
2023/05/12 08:20:00;;;;;;;6.17;4.30;;;22.30;60.30;;;;;;5093334;28;20473;-75
2023/05/12 08:22:28;;;;;;;4.13;3.83;;;22.30;59.90;;;;;;5093185;28;20461;-76
2023/05/12 08:24:55;;;;;;;4.47;4.03;;;22.40;59.80;;;;;;5092778;28;20470;-75
2023/05/12 08:27:22;;;;;;;4.97;4.57;;;22.40;59.40;;;;;;5093163;28;20484;-76
2023/05/12 08:29:51;;;;;;;6.57;4.50;;;22.40;59.30;;;;;;5093255;28;20527;-76
2023/05/12 08:32:18;;;;;;;5.43;3.90;;;22.50;59.20;;;;;;5092895;28;20449;-78
2023/05/12 08:34:45;;;;;;;6.00;3.87;;;22.50;59.20;;;;;;5093133;28;20626;-75
2023/05/12 08:37:12;;;;;;;4.77;4.10;;;22.50;56.90;;;;;;5092212;28;20469;-75
2023/05/12 08:39:41;;;;;;;4.13;3.73;;;22.50;57.40;;;;;;5092487;28;20458;-75
2023/05/12 08:42:30;;;;;;;10.40;4.53;;;22.50;57.60;;;;;;5091810;28;20466;-76
2023/05/12 08:44:59;;;;;;;3.87;3.40;;;22.50;57.10;;;;;;5092349;28;20501;-75
2023/05/12 08:47:27;;;;;;;7.17;4.73;;;22.40;56.40;;;;;;5094523;28;20962;-75
2023/05/12 08:49:59;;;;;;;4.23;3.83;;;22.30;55.30;;;;;;5096940;28;20469;-75
2023/05/12 08:52:29;;;;;;;3.00;2.80;;;22.30;56.00;;;;;;5096638;28;20477;-76
2023/05/12 08:54:58;;;;;;;5.43;3.73;;;22.30;55.00;;;;;;5096818;28;21036;-74
2023/05/12 08:57:26;;;;;;;4.20;3.90;;;22.20;55.10;;;;;;5096220;28;20918;-74
2023/05/12 08:59:54;;;;;;;5.03;3.93;;;22.20;54.30;;;;;;5096933;28;20544;-75
2023/05/12 09:02:23;;;;;;;4.23;3.83;;;22.30;54.40;;;;;;5096160;28;20487;-76
2023/05/12 09:04:50;;;;;;;5.40;3.70;;;22.30;54.30;;;;;;5096641;28;20465;-75
2023/05/12 09:07:19;;;;;;;3.73;3.43;;;22.30;54.30;;;;;;5096174;28;20493;-76
2023/05/12 09:09:51;;;;;;;4.47;3.90;;;22.30;54.90;;;;;;5093183;28;20473;-76
2023/05/12 09:12:20;;;;;;;5.93;3.80;;;22.20;53.30;;;;;;5093947;28;20489;-75
2023/05/12 09:14:58;;;;;;;5.83;4.23;;;22.20;53.10;;;;;;5096592;28;20469;-76
2023/05/12 09:17:25;;;;;;;5.33;3.73;;;22.10;52.20;;;;;;5096386;28;20518;-75
2023/05/12 09:19:52;;;;;;;3.77;3.50;;;22.10;52.40;;;;;;5095809;28;21023;-75
2023/05/12 09:22:27;;;;;;;4.10;3.07;;;22.00;51.80;;;;;;5093291;28;20497;-76
2023/05/12 09:24:54;;;;;;;3.80;3.50;;;22.00;51.60;;;;;;5092840;28;20476;-75
2023/05/12 09:27:26;;;;;;;7.20;3.43;;;22.00;52.00;;;;;;5094636;28;20584;-75
2023/05/12 09:29:53;;;;;;;4.60;3.20;;;22.10;51.80;;;;;;5086253;28;20477;-77
2023/05/12 09:32:31;;;;;;;7.30;3.73;;;22.10;52.30;;;;;;5087039;28;20503;-75
2023/05/12 09:35:03;;;;;;;5.10;4.30;;;22.00;51.30;;;;;;5092240;28;20971;-76
2023/05/12 09:37:34;;;;;;;6.07;3.70;;;22.10;52.50;;;;;;5094055;28;20476;-76
2023/05/12 09:40:02;;;;;;;4.73;3.73;;;22.00;52.30;;;;;;5094582;28;20470;-75
2023/05/12 09:42:32;;;;;;;6.07;3.07;;;22.10;52.00;;;;;;5099759;28;20455;-76
2023/05/12 09:45:00;;;;;;;5.60;3.93;;;22.10;50.20;;;;;;5094415;28;20476;-76
2023/05/12 09:47:35;;;;;;;3.90;3.60;;;22.10;50.50;;;;;;5087096;28;20465;-76
2023/05/12 09:50:02;;;;;;;7.27;3.50;;;22.10;50.70;;;;;;5093091;28;20473;-74
2023/05/12 09:52:31;;;;;;;3.47;3.27;;;22.00;50.40;;;;;;5093093;28;20465;-75
2023/05/12 09:55:05;;;;;;;5.57;3.57;;;22.10;51.60;;;;;;5093074;28;20466;-75
2023/05/12 09:57:38;;;;;;;3.30;3.00;;;22.10;51.30;;;;;;5083051;28;21422;-76
2023/05/12 10:00:09;;;;;;;4.97;3.33;;;22.10;51.70;;;;;;5082010;28;20489;-75
2023/05/12 10:02:40;;;;;;;4.13;3.73;;;22.20;50.40;;;;;;5085973;28;20472;-76
2023/05/12 10:05:13;;;;;;;5.17;3.67;;;22.20;50.00;;;;;;5072122;28;20569;-76
2023/05/12 10:07:41;;;;;;;3.90;3.13;;;22.30;49.40;;;;;;5091203;28;20476;-75
2023/05/12 10:10:10;;;;;;;5.60;3.47;;;22.30;49.70;;;;;;5086735;28;20481;-75
2023/05/12 10:12:41;;;;;;;6.97;3.70;;;22.30;50.30;;;;;;5086165;28;20483;-75
2023/05/12 10:15:10;;;;;;;6.37;3.03;;;22.30;50.30;;;;;;5090593;28;20504;-75
2023/05/12 10:17:37;;;;;;;3.10;2.90;;;22.40;50.50;;;;;;5091129;28;20837;-76
2023/05/12 10:20:05;;;;;;;4.47;3.37;;;22.40;50.70;;;;;;5090923;28;20485;-75
2023/05/12 10:22:35;;;;;;;4.20;3.77;;;22.50;51.10;;;;;;5092545;28;20469;-75
2023/05/12 10:25:02;;;;;;;3.30;2.90;;;22.40;50.70;;;;;;5091690;28;20613;-77
2023/05/12 10:27:31;;;;;;;7.23;3.63;;;22.40;50.40;;;;;;5090876;28;20565;-76
2023/05/12 10:30:01;;;;;;;3.07;2.87;;;22.40;50.50;;;;;;5089204;28;20807;-76
2023/05/12 10:32:28;;;;;;;3.23;2.70;;;22.50;50.60;;;;;;5090575;28;21069;-76
2023/05/12 10:34:55;;;;;;;3.50;3.20;;;22.50;50.30;;;;;;5091193;28;20530;-77
2023/05/12 10:37:23;;;;;;;3.37;3.17;;;22.50;49.90;;;;;;5090621;28;20497;-76
2023/05/12 10:39:52;;;;;;;5.00;3.10;;;22.40;49.80;;;;;;5083494;28;20473;-76
2023/05/12 10:42:24;;;;;;;6.13;3.20;;;22.50;49.90;;;;;;5092376;28;20465;-75
2023/05/12 10:44:52;;;;;;;7.90;3.20;;;22.50;50.40;;;;;;5087908;28;20469;-76
2023/05/12 10:47:25;;;;;;;4.17;3.37;;;22.50;50.60;;;;;;5090918;28;20461;-76
2023/05/12 10:49:57;;;;;;;6.67;3.77;;;22.60;50.40;;;;;;5086521;28;20453;-75
2023/05/12 10:52:24;;;;;;;4.63;3.27;;;22.70;50.70;;;;;;5089654;28;20469;-75
2023/05/12 10:55:00;;;;;;;6.47;3.73;;;22.70;50.60;;;;;;5092199;28;20458;-74
2023/05/12 10:57:29;;;;;;;6.40;3.53;;;22.70;51.70;;;;;;5092748;28;20456;-74
2023/05/12 10:59:58;;;;;;;4.33;3.80;;;22.70;51.10;;;;;;5095551;27;20462;-75
2023/05/12 11:02:31;;;;;;;4.10;3.60;;;22.70;50.40;;;;;;5092007;28;20811;-75
2023/05/12 11:04:59;;;;;;;4.13;3.57;;;22.70;50.00;;;;;;5093180;28;20461;-75
2023/05/12 11:07:28;;;;;;;3.97;3.50;;;22.60;50.10;;;;;;5091617;28;20473;-76
2023/05/12 11:09:56;;;;;;;4.33;3.20;;;22.70;50.30;;;;;;5092967;28;20465;-75
2023/05/12 11:12:25;;;;;;;3.27;2.97;;;22.70;50.80;;;;;;5086891;28;20539;-75
2023/05/12 11:14:52;;;;;;;5.60;3.23;;;22.80;50.20;;;;;;5085419;28;20582;-75
2023/05/12 11:17:19;;;;;;;3.40;3.10;;;22.70;50.30;;;;;;5107045;28;20500;-77
2023/05/12 11:19:49;;;;;;;3.73;3.23;;;22.70;50.40;;;;;;5093269;28;20811;-77
2023/05/12 11:22:18;;;;;;;4.37;3.30;;;22.70;50.70;;;;;;5093722;28;20871;-77
2023/05/12 11:24:46;;;;;;;3.93;3.63;;;22.70;50.40;;;;;;5092992;28;20483;-77
2023/05/12 11:27:14;;;;;;;3.80;3.33;;;22.80;50.80;;;;;;5094118;28;20572;-76
2023/05/12 11:29:41;;;;;;;4.30;3.90;;;22.90;51.50;;;;;;5092173;28;20462;-77
2023/05/12 11:32:09;;;;;;;4.23;3.90;;;22.90;51.00;;;;;;5093480;28;20529;-76
2023/05/12 11:34:37;;;;;;;6.93;3.90;;;22.90;50.20;;;;;;5093992;28;20473;-76
2023/05/12 11:37:06;;;;;;;4.03;3.60;;;22.90;50.10;;;;;;5083920;28;20458;-75
2023/05/12 11:39:34;;;;;;;5.00;3.43;;;23.00;49.90;;;;;;5093302;28;20478;-76
2023/05/12 11:42:03;;;;;;;3.80;3.47;;;23.00;49.00;;;;;;5091035;28;20461;-76
2023/05/12 11:44:39;;;;;;;4.27;2.77;;;23.00;48.60;;;;;;5089951;28;20469;-77
2023/05/12 11:47:13;;;;;;;3.70;3.20;;;23.00;48.20;;;;;;5087531;28;20445;-76
2023/05/12 11:49:46;;;;;;;4.70;3.70;;;23.00;49.00;;;;;;5092989;28;20469;-76
2023/05/12 11:52:18;;;;;;;3.30;3.10;;;23.00;49.70;;;;;;5086500;28;20473;-76
2023/05/12 11:54:49;;;;;;;5.10;3.57;;;23.00;50.10;;;;;;5083407;28;20964;-76
2023/05/12 11:57:25;;;;;;;5.80;3.67;;;23.00;50.30;;;;;;5082783;28;20473;-76
2023/05/12 11:59:57;;;;;;;3.93;3.50;;;23.00;49.50;;;;;;5090633;28;20496;-77
2023/05/12 12:02:25;;;;;;;4.13;3.03;;;23.00;49.60;;;;;;5089944;28;20606;-76
2023/05/12 12:04:52;;;;;;;5.80;3.60;;;22.90;49.50;;;;;;5090946;28;20500;-75
2023/05/12 12:07:29;;;;;;;5.90;3.90;;;22.90;49.60;;;;;;5084418;28;20489;-74
2023/05/12 12:09:56;;;;;;;5.47;3.43;;;22.90;50.30;;;;;;5090569;28;20485;-75
2023/05/12 12:12:23;;;;;;;4.00;3.70;;;23.00;50.00;;;;;;5091452;28;20461;-74
2023/05/12 12:14:50;;;;;;;5.20;3.67;;;23.00;50.70;;;;;;5091430;28;20470;-75
2023/05/12 12:17:17;;;;;;;6.97;3.37;;;23.00;51.10;;;;;;5091473;28;20465;-75
2023/05/12 12:19:46;;;;;;;4.67;3.23;;;22.90;50.20;;;;;;5090811;28;20843;-75
2023/05/12 12:22:13;;;;;;;4.03;3.63;;;22.80;50.10;;;;;;5090565;28;20469;-74
2023/05/12 12:24:41;;;;;;;4.60;3.80;;;22.80;50.40;;;;;;5091434;28;20505;-75
2023/05/12 12:27:08;;;;;;;3.47;3.17;;;22.80;50.80;;;;;;5082582;28;20462;-75
2023/05/12 12:29:35;;;;;;;6.50;3.77;;;22.80;51.00;;;;;;5092063;28;20476;-74
2023/05/12 12:32:03;;;;;;;3.33;3.07;;;22.90;51.20;;;;;;5091116;28;20457;-75
2023/05/12 12:34:33;;;;;;;2.90;2.60;;;22.90;50.40;;;;;;5090668;28;20453;-74
2023/05/12 12:37:00;;;;;;;5.83;4.07;;;22.80;50.00;;;;;;5089684;28;21151;-75
2023/05/12 12:39:27;;;;;;;4.20;3.40;;;22.80;50.70;;;;;;5083568;28;20469;-75
2023/05/12 12:41:55;;;;;;;5.87;3.50;;;22.90;50.80;;;;;;5089896;28;20489;-75
2023/05/12 12:44:22;;;;;;;4.33;3.40;;;22.90;51.10;;;;;;5090695;28;20473;-75
2023/05/12 12:46:49;;;;;;;7.37;4.20;;;23.00;51.40;;;;;;5091935;28;20465;-75
2023/05/12 12:49:16;;;;;;;7.50;2.90;;;23.10;51.00;;;;;;5082011;28;20527;-74
2023/05/12 12:51:43;;;;;;;3.90;3.60;;;23.10;50.80;;;;;;5092091;28;20465;-76